createdAt,value
2023-05-14T00:00:24.026Z,57.69
2023-05-14T00:02:51.176Z,56.72
2023-05-14T00:05:18.331Z,57.13
2023-05-14T00:07:44.797Z,58.35
2023-05-14T00:10:11.325Z,56.83
2023-05-14T00:12:38.193Z,56.06
2023-05-14T00:15:05.498Z,56.02
2023-05-14T00:17:32.449Z,55.57
2023-05-14T00:19:59.507Z,56.77
2023-05-14T00:22:26.059Z,55.95
2023-05-14T00:24:52.667Z,55.77
2023-05-14T00:27:19.487Z,55.35
2023-05-14T00:29:45.936Z,55.13
2023-05-14T00:32:12.424Z,56.07
2023-05-14T00:34:39.489Z,55.21
2023-05-14T00:37:06.024Z,55.32
2023-05-14T00:39:33.297Z,55.57
2023-05-14T00:42:00.808Z,55.89
2023-05-14T00:44:27.326Z,55.70
2023-05-14T00:46:54.223Z,56.73
2023-05-14T00:49:21.600Z,55.80
2023-05-14T00:51:48.139Z,56.04
2023-05-14T00:54:16.229Z,55.90
2023-05-14T00:56:47.113Z,55.47
2023-05-14T00:59:13.982Z,55.35
2023-05-14T01:01:41.141Z,55.14
2023-05-14T01:04:08.402Z,55.36
2023-05-14T01:07:19.329Z,54.95
2023-05-14T01:09:53.355Z,54.52
2023-05-14T01:12:34.293Z,54.78
2023-05-14T01:15:06.710Z,54.68
2023-05-14T01:17:37.206Z,54.32
2023-05-14T01:20:04.319Z,54.14
2023-05-14T01:22:31.128Z,55.17
2023-05-14T01:24:57.829Z,54.56
2023-05-14T01:27:51.697Z,54.41
2023-05-14T01:30:23.568Z,54.65
2023-05-14T01:32:52.491Z,54.51
2023-05-14T01:35:20.735Z,54.54
2023-05-14T01:37:48.954Z,54.24
2023-05-14T01:40:15.674Z,54.19
2023-05-14T01:42:43.262Z,54.30
2023-05-14T01:45:10.439Z,54.06
2023-05-14T01:47:36.994Z,54.02
2023-05-14T01:50:04.122Z,53.92
2023-05-14T01:52:30.663Z,53.95
2023-05-14T01:54:58.388Z,54.27
2023-05-14T01:57:25.096Z,54.63
2023-05-14T01:59:51.544Z,54.37
2023-05-14T02:02:18.645Z,54.39
2023-05-14T02:04:45.636Z,54.43
2023-05-14T02:07:12.503Z,54.38
2023-05-14T02:09:40.041Z,54.63
2023-05-14T02:12:08.075Z,54.58
2023-05-14T02:14:34.714Z,54.87
2023-05-14T02:17:01.188Z,54.86
2023-05-14T02:19:27.649Z,54.69
2023-05-14T02:21:54.336Z,54.69
2023-05-14T02:24:20.816Z,54.12
2023-05-14T02:26:47.947Z,54.36
2023-05-14T02:29:14.715Z,55.32
2023-05-14T02:31:41.204Z,55.11
2023-05-14T02:34:08.004Z,55.04
2023-05-14T02:36:34.568Z,56.21
2023-05-14T02:39:01.130Z,55.97
2023-05-14T02:41:27.719Z,55.37
2023-05-14T02:43:54.305Z,55.60
2023-05-14T02:46:21.296Z,55.79
2023-05-14T02:48:47.870Z,55.84
2023-05-14T02:51:14.440Z,55.88
2023-05-14T02:53:41.279Z,55.77
2023-05-14T02:56:08.114Z,55.45
2023-05-14T02:58:34.938Z,55.57
2023-05-14T03:01:01.432Z,55.57
2023-05-14T03:03:29.938Z,55.55
2023-05-14T03:05:57.340Z,55.25
2023-05-14T03:08:23.903Z,55.13
2023-05-14T03:10:50.794Z,55.43
2023-05-14T03:13:19.966Z,55.13
2023-05-14T03:15:47.136Z,55.62
2023-05-14T03:18:15.068Z,55.46
2023-05-14T03:20:41.915Z,55.41
2023-05-14T03:23:08.478Z,55.43
2023-05-14T03:25:35.430Z,55.01
2023-05-14T03:28:03.473Z,55.16
2023-05-14T03:30:30.105Z,55.44
2023-05-14T03:32:57.076Z,56.45
2023-05-14T03:35:23.560Z,55.57
2023-05-14T03:37:50.862Z,55.65
2023-05-14T03:40:17.979Z,55.67
2023-05-14T03:42:44.476Z,55.21
2023-05-14T03:45:11.015Z,55.16
2023-05-14T03:47:37.930Z,54.85
2023-05-14T03:50:04.761Z,54.93
2023-05-14T03:52:31.179Z,54.77
2023-05-14T03:54:57.814Z,54.79
2023-05-14T03:57:24.349Z,54.59
2023-05-14T03:59:51.046Z,54.65
2023-05-14T04:02:17.819Z,54.58
2023-05-14T04:04:44.644Z,54.68
2023-05-14T04:07:11.594Z,55.32
2023-05-14T04:09:38.052Z,55.15
2023-05-14T04:12:05.027Z,55.67
2023-05-14T04:14:31.853Z,56.54
2023-05-14T04:17:00.118Z,55.71
2023-05-14T04:19:26.784Z,55.79
2023-05-14T04:21:53.889Z,55.63
2023-05-14T04:24:20.390Z,55.33
2023-05-14T04:26:46.823Z,55.04
2023-05-14T04:29:13.737Z,54.82
2023-05-14T04:31:40.337Z,55.08
2023-05-14T04:34:07.081Z,54.59
2023-05-14T04:36:33.547Z,54.55
2023-05-14T04:38:59.992Z,54.62
2023-05-14T04:41:26.910Z,54.70
2023-05-14T04:43:55.926Z,54.21
2023-05-14T04:46:22.527Z,53.81
2023-05-14T04:48:49.274Z,53.89
2023-05-14T04:51:15.816Z,54.03
2023-05-14T04:53:42.632Z,54.23
2023-05-14T04:56:09.932Z,54.01
2023-05-14T04:58:36.350Z,54.56
2023-05-14T05:01:05.193Z,54.42
2023-05-14T05:03:31.992Z,54.21
2023-05-14T05:05:58.658Z,54.30
2023-05-14T05:08:26.347Z,54.13
2023-05-14T05:10:52.833Z,53.49
2023-05-14T05:13:19.667Z,53.23
2023-05-14T05:15:46.632Z,52.88
2023-05-14T05:18:13.138Z,52.74
2023-05-14T05:20:39.630Z,52.98
2023-05-14T05:23:07.207Z,51.77
2023-05-14T05:25:33.715Z,51.72
2023-05-14T05:28:00.252Z,51.78
2023-05-14T05:30:27.277Z,51.44
2023-05-14T05:32:54.167Z,51.00
2023-05-14T05:35:20.696Z,50.52
2023-05-14T05:37:47.188Z,50.13
2023-05-14T05:40:14.422Z,49.63
2023-05-14T05:42:41.586Z,49.48
2023-05-14T05:45:08.911Z,50.14
2023-05-14T05:47:35.475Z,49.23
2023-05-14T05:50:02.046Z,48.39
2023-05-14T05:52:29.163Z,47.95
2023-05-14T05:54:55.674Z,49.11
2023-05-14T05:57:25.678Z,48.49
2023-05-14T05:59:53.232Z,48.99
2023-05-14T06:02:19.986Z,49.57
2023-05-14T06:04:46.793Z,49.78
2023-05-14T06:07:13.815Z,49.89
2023-05-14T06:09:40.265Z,49.41
2023-05-14T06:12:07.112Z,49.36
2023-05-14T06:14:33.967Z,49.30
2023-05-14T06:17:00.871Z,51.29
2023-05-14T06:19:27.999Z,49.93
2023-05-14T06:21:54.744Z,49.94
2023-05-14T06:24:21.282Z,48.92
2023-05-14T06:26:49.286Z,48.37
2023-05-14T06:29:16.101Z,48.26
2023-05-14T06:31:42.667Z,47.43
2023-05-14T06:34:09.570Z,47.27
2023-05-14T06:36:36.072Z,48.05
2023-05-14T06:39:03.526Z,48.08
2023-05-14T06:41:30.374Z,48.20
2023-05-14T06:43:56.889Z,48.04
2023-05-14T06:46:23.498Z,47.50
2023-05-14T06:48:50.620Z,47.17
2023-05-14T06:51:17.209Z,47.45
2023-05-14T06:53:43.689Z,46.76
2023-05-14T06:56:10.915Z,46.35
2023-05-14T06:58:37.418Z,46.03
2023-05-14T07:01:04.182Z,46.03
2023-05-14T07:03:31.526Z,46.62
2023-05-14T07:05:58.072Z,46.77
2023-05-14T07:08:24.894Z,47.70
2023-05-14T07:10:52.710Z,47.04
2023-05-14T07:13:19.189Z,45.90
2023-05-14T07:15:45.748Z,45.27
2023-05-14T07:18:12.534Z,43.93
2023-05-14T07:20:39.353Z,44.51
2023-05-14T07:23:06.114Z,45.04
2023-05-14T07:25:32.798Z,44.31
2023-05-14T07:27:59.307Z,44.59
2023-05-14T07:30:26.314Z,43.89
2023-05-14T07:32:53.061Z,44.04
2023-05-14T07:35:20.260Z,44.08
2023-05-14T07:37:47.125Z,43.68
2023-05-14T07:40:13.660Z,43.51
2023-05-14T07:42:40.330Z,43.47
2023-05-14T07:45:08.710Z,43.20
2023-05-14T07:47:35.469Z,43.83
2023-05-14T07:50:02.355Z,44.68
2023-05-14T07:52:28.964Z,43.07
2023-05-14T07:54:55.580Z,42.74
2023-05-14T07:57:22.962Z,42.29
2023-05-14T07:59:49.614Z,41.68
2023-05-14T08:02:16.960Z,43.35
2023-05-14T08:04:44.942Z,42.28
2023-05-14T08:07:11.591Z,41.97
2023-05-14T08:09:38.365Z,42.69
2023-05-14T08:12:07.435Z,42.32
2023-05-14T08:14:34.353Z,41.57
2023-05-14T08:17:01.138Z,40.91
2023-05-14T08:19:27.846Z,40.88
2023-05-14T08:21:54.521Z,39.88
2023-05-14T08:24:21.492Z,39.05
2023-05-14T08:26:48.163Z,38.34
2023-05-14T08:29:16.604Z,38.36
2023-05-14T08:31:44.288Z,37.52
2023-05-14T08:34:10.931Z,37.43
2023-05-14T08:36:39.051Z,36.92
2023-05-14T08:39:07.684Z,37.02
2023-05-14T08:41:34.756Z,36.12
2023-05-14T08:44:22.692Z,35.88
2023-05-14T08:46:49.888Z,34.69
2023-05-14T08:49:35.679Z,34.26
2023-05-14T08:52:02.487Z,33.25
2023-05-14T08:54:32.364Z,33.41
2023-05-14T08:56:59.595Z,32.03
2023-05-14T08:59:26.291Z,32.09
2023-05-14T09:01:54.689Z,31.03
2023-05-14T09:04:23.819Z,30.93
2023-05-14T09:06:56.094Z,31.08
2023-05-14T09:09:23.611Z,29.92
2023-05-14T09:11:53.643Z,29.46
2023-05-14T09:14:22.027Z,28.84
2023-05-14T09:16:50.557Z,26.80
2023-05-14T09:19:21.737Z,22.43
2023-05-14T09:21:49.423Z,17.84
2023-05-14T09:24:23.897Z,15.23
2023-05-14T09:26:54.600Z,12.96
2023-05-14T09:29:21.071Z,11.44
2023-05-14T09:31:48.966Z,11.46
2023-05-14T09:34:24.446Z,10.11
2023-05-14T09:36:55.483Z,8.95
2023-05-14T09:39:23.881Z,8.24
2023-05-14T09:41:51.843Z,8.64
2023-05-14T09:44:19.732Z,7.49
2023-05-14T09:46:47.012Z,7.04
2023-05-14T09:49:13.729Z,7.33
2023-05-14T09:51:41.227Z,7.63
2023-05-14T09:54:08.185Z,7.44
2023-05-14T09:56:36.209Z,6.93
2023-05-14T09:59:03.685Z,6.99
2023-05-14T10:01:31.282Z,7.00
2023-05-14T10:03:59.547Z,6.60
2023-05-14T10:06:28.790Z,5.79
2023-05-14T10:09:01.735Z,7.26
2023-05-14T10:11:31.430Z,7.33
2023-05-14T10:14:33.972Z,8.10
2023-05-14T10:17:01.837Z,7.60
2023-05-14T10:19:33.428Z,8.39
2023-05-14T10:22:04.479Z,8.12
2023-05-14T10:24:31.573Z,6.97
2023-05-14T10:26:58.766Z,7.74
2023-05-14T10:29:36.037Z,7.16
2023-05-14T10:32:07.272Z,6.71
2023-05-14T10:34:44.024Z,7.88
2023-05-14T10:37:12.899Z,6.89
2023-05-14T10:39:51.528Z,10.90
2023-05-14T10:42:23.318Z,9.61
2023-05-14T10:44:58.471Z,10.55
2023-05-14T10:47:28.866Z,10.81
2023-05-14T10:49:58.294Z,10.08
2023-05-14T10:52:26.412Z,8.88
2023-05-14T10:54:59.222Z,9.77
2023-05-14T10:57:29.750Z,8.84
2023-05-14T10:59:58.395Z,8.15
2023-05-14T11:02:27.934Z,7.62
2023-05-14T11:05:09.161Z,8.83
2023-05-14T11:07:41.689Z,8.90
2023-05-14T11:10:10.089Z,9.83
2023-05-14T11:12:39.132Z,9.83
2023-05-14T11:15:09.246Z,10.37
2023-05-14T11:17:36.938Z,9.41
2023-05-14T11:20:05.505Z,9.17
2023-05-14T11:22:32.252Z,10.71
2023-05-14T11:24:58.910Z,11.39
2023-05-14T11:27:26.301Z,9.26
2023-05-14T11:29:53.110Z,9.49
2023-05-14T11:32:20.244Z,9.68
2023-05-14T11:34:47.340Z,9.18
2023-05-14T11:37:15.242Z,9.69
2023-05-14T11:39:49.761Z,10.41
2023-05-14T11:42:18.641Z,9.01
2023-05-14T11:44:49.924Z,7.88
2023-05-14T11:47:18.206Z,7.62
2023-05-14T11:49:45.101Z,7.71
2023-05-14T11:52:15.935Z,7.23
2023-05-14T11:54:43.938Z,6.88
2023-05-14T11:57:12.921Z,6.30
2023-05-14T11:59:40.343Z,6.24
2023-05-14T12:02:12.003Z,6.72
2023-05-14T12:04:38.796Z,7.87
2023-05-14T12:07:10.279Z,10.22
2023-05-14T12:09:40.650Z,9.98
2023-05-14T12:12:10.017Z,10.89
2023-05-14T12:14:42.492Z,13.12
2023-05-14T12:17:19.457Z,14.74
2023-05-14T12:19:48.296Z,17.18
2023-05-14T12:22:17.200Z,20.15
2023-05-14T12:24:44.478Z,21.87
2023-05-14T12:27:11.972Z,22.51
2023-05-14T12:29:39.022Z,23.35
2023-05-14T12:32:09.839Z,23.62
2023-05-14T12:34:37.697Z,23.32
2023-05-14T12:37:05.511Z,23.48
2023-05-14T12:39:34.112Z,22.92
2023-05-14T12:42:01.312Z,23.25
2023-05-14T12:44:28.248Z,24.10
2023-05-14T12:46:55.149Z,23.66
2023-05-14T12:49:21.654Z,24.24
2023-05-14T12:51:48.147Z,22.86
2023-05-14T12:54:15.967Z,24.34
2023-05-14T12:56:42.862Z,24.64
2023-05-14T12:59:10.218Z,23.67
2023-05-14T13:01:38.247Z,23.51
2023-05-14T13:04:05.626Z,23.90
2023-05-14T13:06:32.744Z,24.53
2023-05-14T13:09:01.720Z,23.59
2023-05-14T13:11:30.310Z,24.28
2023-05-14T13:13:57.593Z,23.60
2023-05-14T13:16:25.433Z,22.59
2023-05-14T13:18:52.405Z,22.10
2023-05-14T13:21:19.552Z,22.07
2023-05-14T13:23:47.172Z,23.30
2023-05-14T13:26:14.228Z,23.38
2023-05-14T13:28:41.018Z,23.80
2023-05-14T13:31:12.329Z,24.21
2023-05-14T13:33:41.570Z,24.92
2023-05-14T13:36:08.617Z,23.66
2023-05-14T13:38:35.767Z,23.79
2023-05-14T13:41:02.732Z,22.72
2023-05-14T13:43:30.796Z,23.76
2023-05-14T13:45:57.612Z,24.08
2023-05-14T13:48:25.734Z,25.28
2023-05-14T13:50:52.584Z,25.84
2023-05-14T13:53:23.136Z,25.06
2023-05-14T13:55:50.424Z,26.16
2023-05-14T13:58:17.243Z,25.13
2023-05-14T14:00:43.702Z,24.91
2023-05-14T14:03:10.325Z,25.17
2023-05-14T14:05:37.599Z,24.33
2023-05-14T14:08:13.082Z,24.86
2023-05-14T14:10:48.369Z,25.05
2023-05-14T14:13:15.419Z,25.92
2023-05-14T14:15:42.636Z,25.60
2023-05-14T14:18:09.131Z,26.62
2023-05-14T14:20:36.230Z,26.90
2023-05-14T14:23:02.769Z,28.96
2023-05-14T14:25:29.374Z,27.11
2023-05-14T14:27:55.959Z,26.81
2023-05-14T14:30:22.464Z,26.53
2023-05-14T14:32:49.605Z,27.10
2023-05-14T14:35:17.812Z,27.06
2023-05-14T14:37:48.957Z,25.64
2023-05-14T14:40:16.684Z,24.45
2023-05-14T14:42:43.584Z,24.59
2023-05-14T14:45:10.495Z,23.71
2023-05-14T14:47:37.594Z,24.58
2023-05-14T14:50:04.807Z,25.02
2023-05-14T14:52:31.683Z,26.15
2023-05-14T14:54:58.857Z,26.51
2023-05-14T14:57:26.682Z,26.56
2023-05-14T14:59:53.718Z,26.27
2023-05-14T15:02:20.308Z,26.22
2023-05-14T15:04:46.806Z,26.88
2023-05-14T15:07:15.922Z,26.69
2023-05-14T15:09:42.836Z,27.01
2023-05-14T15:12:10.755Z,28.12
2023-05-14T15:14:37.962Z,28.85
2023-05-14T15:17:04.681Z,29.67
2023-05-14T15:19:32.254Z,28.79
2023-05-14T15:21:59.185Z,29.52
2023-05-14T15:24:26.210Z,29.54
2023-05-14T15:26:53.556Z,29.12
2023-05-14T15:29:20.605Z,28.46
2023-05-14T15:31:47.382Z,28.96
2023-05-14T15:34:13.986Z,28.80
2023-05-14T15:36:40.990Z,28.28
2023-05-14T15:39:10.153Z,28.30
2023-05-14T15:41:36.669Z,28.47
2023-05-14T15:44:03.169Z,28.48
2023-05-14T15:46:30.470Z,27.64
2023-05-14T15:48:57.894Z,26.83
2023-05-14T15:51:24.391Z,26.80
2023-05-14T15:53:53.102Z,26.17
2023-05-14T15:56:20.781Z,26.22
2023-05-14T15:58:48.751Z,26.26
2023-05-14T16:01:15.304Z,25.98
2023-05-14T16:03:42.210Z,26.15
2023-05-14T16:06:08.852Z,25.78
2023-05-14T16:08:35.459Z,26.09
2023-05-14T16:11:02.480Z,26.41
2023-05-14T16:13:28.955Z,25.75
2023-05-14T16:15:55.631Z,26.43
2023-05-14T16:18:22.219Z,26.10
2023-05-14T16:20:48.814Z,25.54
2023-05-14T16:23:15.596Z,25.50
2023-05-14T16:25:42.142Z,25.24
2023-05-14T16:28:08.799Z,25.64
2023-05-14T16:30:35.661Z,25.75
2023-05-14T16:33:02.229Z,25.19
2023-05-14T16:35:29.094Z,24.73
2023-05-14T16:37:56.681Z,25.10
2023-05-14T16:40:24.093Z,25.82
2023-05-14T16:42:51.674Z,26.68
2023-05-14T16:45:18.920Z,26.74
2023-05-14T16:47:45.583Z,26.87
2023-05-14T16:50:12.562Z,27.23
2023-05-14T16:52:39.073Z,27.39
2023-05-14T16:55:06.604Z,27.67
2023-05-14T16:57:34.335Z,26.80
2023-05-14T17:00:00.815Z,26.37
2023-05-14T17:02:27.388Z,25.81
2023-05-14T17:04:55.238Z,26.39
2023-05-14T17:07:21.819Z,26.06
2023-05-14T17:09:48.690Z,26.44
2023-05-14T17:12:15.327Z,27.00
2023-05-14T17:14:41.866Z,27.61
2023-05-14T17:17:08.724Z,29.31
2023-05-14T17:19:35.192Z,30.85
2023-05-14T17:22:03.938Z,33.14
2023-05-14T17:24:30.531Z,33.85
2023-05-14T17:26:57.093Z,34.39
2023-05-14T17:29:24.055Z,34.82
2023-05-14T17:31:51.012Z,34.96
2023-05-14T17:34:17.907Z,34.59
2023-05-14T17:36:44.622Z,35.21
2023-05-14T17:39:11.080Z,35.70
2023-05-14T17:41:37.543Z,35.61
2023-05-14T17:44:04.900Z,35.28
2023-05-14T17:46:31.485Z,35.45
2023-05-14T17:48:58.344Z,35.77
2023-05-14T17:51:25.209Z,35.04
2023-05-14T17:53:51.659Z,35.69
2023-05-14T17:56:18.700Z,35.57
2023-05-14T17:58:46.134Z,34.95
2023-05-14T18:01:12.953Z,34.83
2023-05-14T18:03:39.635Z,35.01
2023-05-14T18:06:06.635Z,34.90
2023-05-14T18:08:33.159Z,34.89
2023-05-14T18:11:00.768Z,35.51
2023-05-14T18:13:27.273Z,35.71
2023-05-14T18:15:54.324Z,36.03
2023-05-14T18:18:21.713Z,35.88
2023-05-14T18:20:49.344Z,35.86
2023-05-14T18:23:16.173Z,36.29
2023-05-14T18:25:42.967Z,36.94
2023-05-14T18:28:09.669Z,36.88
2023-05-14T18:30:36.529Z,37.75
2023-05-14T18:33:03.372Z,39.78
2023-05-14T18:35:30.858Z,38.41
2023-05-14T18:37:57.305Z,39.19
2023-05-14T18:40:24.028Z,39.45
2023-05-14T18:42:50.794Z,39.31
2023-05-14T18:45:17.384Z,39.30
2023-05-14T18:47:44.005Z,39.75
2023-05-14T18:50:11.132Z,39.78
2023-05-14T18:52:38.150Z,39.80
2023-05-14T18:55:05.134Z,39.35
2023-05-14T18:57:34.879Z,38.78
2023-05-14T19:00:01.985Z,39.74
2023-05-14T19:02:28.687Z,39.94
2023-05-14T19:04:55.565Z,40.20
2023-05-14T19:07:22.208Z,40.42
2023-05-14T19:09:49.134Z,41.07
2023-05-14T19:12:16.083Z,40.84
2023-05-14T19:14:42.675Z,41.10
2023-05-14T19:17:09.448Z,41.55
2023-05-14T19:19:36.453Z,42.24
2023-05-14T19:22:03.266Z,42.04
2023-05-14T19:24:30.188Z,41.89
2023-05-14T19:26:56.722Z,42.07
2023-05-14T19:29:23.287Z,42.03
2023-05-14T19:31:49.989Z,42.43
2023-05-14T19:34:16.766Z,42.58
2023-05-14T19:36:43.218Z,42.76
2023-05-14T19:39:09.789Z,42.80
2023-05-14T19:41:36.548Z,42.98
2023-05-14T19:44:03.632Z,42.94
2023-05-14T19:46:30.297Z,43.01
2023-05-14T19:48:56.766Z,43.31
2023-05-14T19:51:23.244Z,43.53
2023-05-14T19:53:49.996Z,43.37
2023-05-14T19:56:16.518Z,43.66
2023-05-14T19:58:44.186Z,43.53
2023-05-14T20:01:11.941Z,43.84
2023-05-14T20:03:38.598Z,44.14
2023-05-14T20:06:06.577Z,44.55
2023-05-14T20:08:33.322Z,45.99
2023-05-14T20:10:59.816Z,46.50
2023-05-14T20:13:27.113Z,46.07
2023-05-14T20:15:55.134Z,46.01
2023-05-14T20:18:22.116Z,45.90
2023-05-14T20:20:49.017Z,45.68
2023-05-14T20:23:15.673Z,45.81
2023-05-14T20:25:43.053Z,45.49
2023-05-14T20:28:10.202Z,46.26
2023-05-14T20:30:36.820Z,46.18
2023-05-14T20:33:03.936Z,46.98
2023-05-14T20:35:31.067Z,47.08
2023-05-14T20:37:57.745Z,46.78
2023-05-14T20:40:24.755Z,46.71
2023-05-14T20:42:51.494Z,47.04
2023-05-14T20:45:18.421Z,46.86
2023-05-14T20:47:44.961Z,47.02
2023-05-14T20:50:11.812Z,47.94
2023-05-14T20:52:38.601Z,47.73
2023-05-14T20:55:07.458Z,47.57
2023-05-14T20:57:35.130Z,47.51
2023-05-14T21:00:02.417Z,47.39
2023-05-14T21:02:28.986Z,47.31
2023-05-14T21:04:55.936Z,47.96
2023-05-14T21:07:22.681Z,48.92
2023-05-14T21:09:52.664Z,49.29
2023-05-14T21:12:19.867Z,48.03
2023-05-14T21:14:46.533Z,47.39
2023-05-14T21:17:13.525Z,47.54
2023-05-14T21:19:40.288Z,47.16
2023-05-14T21:22:07.347Z,47.03
2023-05-14T21:24:34.283Z,46.79
2023-05-14T21:27:00.736Z,47.43
2023-05-14T21:29:27.287Z,47.10
2023-05-14T21:31:54.151Z,47.09
2023-05-14T21:34:20.759Z,46.68
2023-05-14T21:36:47.753Z,46.69
2023-05-14T21:39:14.243Z,46.88
2023-05-14T21:41:41.314Z,47.14
2023-05-14T21:44:07.954Z,47.75
2023-05-14T21:46:34.527Z,47.94
2023-05-14T21:49:01.159Z,48.07
2023-05-14T21:51:28.280Z,47.92
2023-05-14T21:53:54.768Z,48.41
2023-05-14T21:56:22.454Z,48.79
2023-05-14T21:58:49.366Z,49.49
2023-05-14T22:01:15.819Z,51.05
2023-05-14T22:03:42.859Z,51.04
2023-05-14T22:06:09.445Z,51.90
2023-05-14T22:08:36.083Z,50.96
2023-05-14T22:11:02.944Z,51.65
2023-05-14T22:13:29.501Z,51.95
2023-05-14T22:16:05.202Z,54.32
2023-05-14T22:18:39.317Z,53.76
2023-05-14T22:21:06.195Z,52.72
2023-05-14T22:23:32.709Z,52.23
2023-05-14T22:25:59.217Z,53.75
2023-05-14T22:28:26.047Z,52.64
2023-05-14T22:30:52.746Z,52.51
2023-05-14T22:33:19.363Z,52.36
2023-05-14T22:35:46.369Z,52.51
2023-05-14T22:38:13.801Z,51.49
2023-05-14T22:40:40.466Z,51.10
2023-05-14T22:43:07.300Z,51.80
2023-05-14T22:45:33.789Z,51.89
2023-05-14T22:48:00.341Z,52.43
2023-05-14T22:50:27.074Z,52.65
2023-05-14T22:52:53.517Z,53.04
2023-05-14T22:55:20.200Z,53.04
2023-05-14T22:57:46.766Z,53.03
2023-05-14T23:00:14.543Z,54.02
2023-05-14T23:02:41.123Z,54.57
2023-05-14T23:05:08.397Z,54.70
2023-05-14T23:07:35.296Z,53.69
2023-05-14T23:10:01.923Z,53.61
2023-05-14T23:12:28.493Z,53.04
2023-05-14T23:14:55.433Z,53.33
2023-05-14T23:17:22.209Z,53.36
2023-05-14T23:19:48.938Z,53.16
2023-05-14T23:22:15.901Z,53.09
2023-05-14T23:24:42.355Z,52.72
2023-05-14T23:27:08.948Z,52.24
2023-05-14T23:29:36.700Z,52.41
2023-05-14T23:32:03.340Z,53.18
2023-05-14T23:34:29.995Z,53.46
2023-05-14T23:36:57.161Z,54.28
2023-05-14T23:39:23.685Z,55.80
2023-05-14T23:41:50.510Z,55.55
2023-05-14T23:44:16.962Z,54.47
2023-05-14T23:46:43.732Z,54.95
2023-05-14T23:49:11.090Z,54.54
2023-05-14T23:51:37.772Z,56.44
2023-05-14T23:54:04.645Z,56.22
2023-05-14T23:56:31.169Z,57.62
2023-05-14T23:58:57.935Z,56.89
